createdAt,value
2022-12-25T08:15:43.492Z,78.40
2022-12-25T08:17:46.238Z,77.73
2022-12-25T08:19:48.887Z,77.48
2022-12-25T08:21:51.633Z,76.96
2022-12-25T08:23:54.454Z,76.55
2022-12-25T08:26:04.967Z,76.41
2022-12-25T08:28:08.647Z,76.15
2022-12-25T08:30:11.910Z,75.68
2022-12-25T08:32:15.960Z,75.79
2022-12-25T08:34:19.334Z,75.42
2022-12-25T08:36:23.027Z,75.39
2022-12-25T08:38:25.725Z,75.00
2022-12-25T08:40:28.505Z,74.92
2022-12-25T08:42:31.776Z,74.81
2022-12-25T08:44:34.489Z,74.65
2022-12-25T08:46:37.230Z,74.66
2022-12-25T08:48:43.056Z,74.48
2022-12-25T08:50:46.834Z,74.30
2022-12-25T08:52:49.676Z,74.02
2022-12-25T08:54:52.376Z,74.13
2022-12-25T08:57:02.148Z,74.00
2022-12-25T08:59:05.276Z,74.00
2022-12-25T09:01:09.946Z,73.64
2022-12-25T09:03:12.694Z,73.59
2022-12-25T09:05:18.747Z,73.58
2022-12-25T09:07:21.442Z,73.51
2022-12-25T09:09:27.682Z,73.50
2022-12-25T09:11:30.435Z,73.31
2022-12-25T09:13:33.970Z,73.17
2022-12-25T09:15:39.280Z,73.31
2022-12-25T09:17:42.355Z,72.86
2022-12-25T09:19:44.995Z,72.82
2022-12-25T09:21:49.301Z,72.85
2022-12-25T09:23:51.960Z,72.69
2022-12-25T09:25:55.255Z,72.50
2022-12-25T09:27:58.161Z,72.53
2022-12-25T09:30:00.819Z,72.38
2022-12-25T09:32:03.556Z,72.27
2022-12-25T09:34:06.236Z,72.29
2022-12-25T09:36:10.222Z,72.07
2022-12-25T09:38:14.242Z,71.88
2022-12-25T09:40:19.771Z,71.48
2022-12-25T09:42:24.985Z,71.91
2022-12-25T09:44:30.550Z,71.84
2022-12-25T09:46:40.304Z,71.78
2022-12-25T09:48:48.945Z,71.43
2022-12-25T09:50:55.630Z,71.49
2022-12-25T09:53:03.999Z,71.24
2022-12-25T09:55:19.911Z,71.21
2022-12-25T09:57:23.006Z,71.19
2022-12-25T09:59:27.707Z,71.29
2022-12-25T10:01:37.906Z,70.98
2022-12-25T10:03:56.022Z,70.89
2022-12-25T10:06:14.222Z,70.85
2022-12-25T10:08:29.356Z,70.86
2022-12-25T10:10:50.965Z,70.94
2022-12-25T10:13:02.722Z,70.79
2022-12-25T10:15:21.933Z,70.57
2022-12-25T10:17:37.272Z,70.71
2022-12-25T10:19:49.258Z,70.39
2022-12-25T10:21:55.478Z,70.32
2022-12-25T10:24:07.878Z,70.29
2022-12-25T10:26:16.767Z,69.99
2022-12-25T10:28:27.681Z,70.03
2022-12-25T10:30:31.384Z,70.18
2022-12-25T10:32:34.685Z,69.81
2022-12-25T10:34:39.294Z,70.06
2022-12-25T10:36:44.739Z,70.00
2022-12-25T10:38:47.790Z,69.99
2022-12-25T10:41:07.015Z,69.77
2022-12-25T10:43:14.591Z,69.93
2022-12-25T10:45:17.363Z,69.71
2022-12-25T10:47:24.916Z,69.81
2022-12-25T10:49:31.606Z,69.71
2022-12-25T10:51:36.640Z,69.51
2022-12-25T10:53:41.270Z,69.46
2022-12-25T10:55:44.036Z,69.50
2022-12-25T10:57:47.739Z,69.35
2022-12-25T10:59:55.884Z,69.17
2022-12-25T11:02:11.168Z,69.15
2022-12-25T11:04:20.187Z,69.22
2022-12-25T11:06:25.341Z,68.90
2022-12-25T11:08:30.766Z,68.98
2022-12-25T11:10:42.055Z,69.02
2022-12-25T11:12:47.129Z,68.93
2022-12-25T11:14:56.494Z,69.02
2022-12-25T11:17:10.077Z,68.71
2022-12-25T11:19:25.889Z,68.54
2022-12-25T11:21:31.984Z,68.49
2022-12-25T11:23:34.743Z,68.65
2022-12-25T11:25:37.813Z,68.91
2022-12-25T11:27:40.510Z,68.69
2022-12-25T11:29:47.573Z,68.64
2022-12-25T11:31:53.979Z,68.76
2022-12-25T11:34:01.406Z,68.51
2022-12-25T11:36:10.732Z,68.52
2022-12-25T11:38:13.398Z,68.40
2022-12-25T11:40:16.733Z,68.39
2022-12-25T11:42:23.685Z,68.24
2022-12-25T11:44:35.423Z,68.07
2022-12-25T11:46:42.865Z,67.90
2022-12-25T11:48:56.015Z,68.01
2022-12-25T11:51:03.225Z,68.00
2022-12-25T11:53:07.866Z,67.77
2022-12-25T11:55:20.016Z,67.97
2022-12-25T11:57:25.337Z,67.88
2022-12-25T11:59:33.101Z,68.02
2022-12-25T12:01:39.816Z,67.84
2022-12-25T12:03:44.324Z,67.94
2022-12-25T12:05:54.313Z,67.91
2022-12-25T12:08:00.433Z,67.67
2022-12-25T12:10:14.953Z,67.75
2022-12-25T12:12:23.547Z,67.76
2022-12-25T12:14:44.050Z,67.64
2022-12-25T12:16:46.980Z,67.44
2022-12-25T12:18:50.822Z,67.62
2022-12-25T12:21:04.320Z,67.42
2022-12-25T12:23:18.030Z,67.53
2022-12-25T12:25:22.443Z,67.26
2022-12-25T12:27:31.692Z,67.37
2022-12-25T12:29:40.687Z,67.23
2022-12-25T12:31:46.548Z,67.41
2022-12-25T12:33:54.144Z,67.31
2022-12-25T12:35:58.574Z,67.27
2022-12-25T12:38:07.688Z,67.04
2022-12-25T12:40:26.515Z,67.15
2022-12-25T12:42:31.845Z,67.06
2022-12-25T12:44:35.254Z,67.17
2022-12-25T12:46:39.874Z,67.33
2022-12-25T12:48:45.628Z,67.16
2022-12-25T12:50:48.376Z,67.09
2022-12-25T12:52:51.267Z,67.13
2022-12-25T12:55:01.673Z,67.16
2022-12-25T12:57:06.649Z,66.98
2022-12-25T12:59:13.636Z,67.01
2022-12-25T13:01:37.473Z,67.00
2022-12-25T13:04:05.758Z,67.15
2022-12-25T13:06:15.654Z,66.93
2022-12-25T13:08:33.284Z,67.03
2022-12-25T13:10:40.620Z,67.10
2022-12-25T13:12:43.359Z,66.80
2022-12-25T13:14:47.396Z,66.99
2022-12-25T13:16:52.864Z,66.98
2022-12-25T13:18:57.599Z,67.07
2022-12-25T13:21:04.971Z,66.75
2022-12-25T13:23:25.581Z,66.79
2022-12-25T13:25:28.470Z,66.86
2022-12-25T13:27:34.586Z,66.72
2022-12-25T13:29:39.147Z,66.71
2022-12-25T13:31:42.357Z,66.64
2022-12-25T13:33:47.939Z,66.59
2022-12-25T13:35:51.423Z,66.78
2022-12-25T13:37:54.750Z,66.68
2022-12-25T13:39:59.726Z,66.77
2022-12-25T13:42:09.933Z,66.48
2022-12-25T13:44:20.717Z,66.44
2022-12-25T13:46:26.989Z,66.64
2022-12-25T13:48:31.390Z,66.59
2022-12-25T13:50:35.989Z,66.59
2022-12-25T13:52:39.660Z,66.42
2022-12-25T13:54:54.022Z,66.36
2022-12-25T13:56:56.758Z,66.34
2022-12-25T13:58:59.736Z,66.52
2022-12-25T14:01:04.640Z,66.50
2022-12-25T14:03:08.652Z,66.48
2022-12-25T14:05:25.041Z,66.52
2022-12-25T14:07:28.520Z,66.36
2022-12-25T14:09:32.607Z,66.25
2022-12-25T14:11:36.176Z,66.58
2022-12-25T14:13:42.307Z,66.35
2022-12-25T14:15:47.848Z,66.32
2022-12-25T14:17:52.875Z,66.49
2022-12-25T14:20:10.029Z,66.37
2022-12-25T14:22:19.530Z,66.22
2022-12-25T14:24:26.217Z,66.22
2022-12-25T14:26:31.923Z,66.20
2022-12-25T14:28:36.444Z,66.25
2022-12-25T14:30:43.588Z,66.10
2022-12-25T14:32:50.788Z,66.18
2022-12-25T14:34:58.040Z,66.29
2022-12-25T14:37:01.564Z,66.12
2022-12-25T14:39:07.778Z,66.31
2022-12-25T14:41:25.977Z,66.22
2022-12-25T14:43:31.057Z,66.08
2022-12-25T14:45:35.320Z,66.24
2022-12-25T14:47:52.011Z,66.26
2022-12-25T14:49:56.192Z,66.24
2022-12-25T14:51:59.101Z,66.06
2022-12-25T14:54:05.955Z,66.06
2022-12-25T14:56:10.356Z,66.04
2022-12-25T14:58:22.353Z,66.22
2022-12-25T15:00:28.367Z,66.24
2022-12-25T15:02:40.876Z,66.17
2022-12-25T15:04:44.761Z,66.01
2022-12-25T15:06:55.822Z,66.18
2022-12-25T15:09:00.137Z,65.85
2022-12-25T15:11:03.537Z,65.85
2022-12-25T15:13:06.845Z,66.15
2022-12-25T15:15:10.556Z,65.99
2022-12-25T15:17:25.285Z,66.07
2022-12-25T15:19:36.897Z,65.84
2022-12-25T15:21:40.421Z,65.91
2022-12-25T15:23:44.607Z,65.97
2022-12-25T15:25:48.334Z,65.95
2022-12-25T15:27:51.100Z,65.92
2022-12-25T15:30:09.869Z,66.15
2022-12-25T15:32:18.645Z,65.92
2022-12-25T15:34:22.269Z,65.92
2022-12-25T15:36:25.738Z,66.15
2022-12-25T15:38:28.430Z,65.97
2022-12-25T15:40:32.529Z,66.01
2022-12-25T15:42:35.306Z,66.00
2022-12-25T15:44:37.983Z,65.99
2022-12-25T15:46:40.842Z,66.00
2022-12-25T15:48:43.559Z,66.03
2022-12-25T15:50:46.735Z,65.85
2022-12-25T15:52:49.908Z,65.94
2022-12-25T15:54:54.090Z,65.87
2022-12-25T15:57:01.459Z,65.84
2022-12-25T15:59:04.511Z,65.99
2022-12-25T16:01:07.484Z,66.04
2022-12-25T16:03:10.344Z,66.04
2022-12-25T16:05:13.215Z,66.06
2022-12-25T16:07:17.913Z,65.81
2022-12-25T16:09:21.400Z,65.85
2022-12-25T16:11:24.131Z,65.84
2022-12-25T16:13:28.186Z,65.99
2022-12-25T16:15:30.922Z,65.97
2022-12-25T16:17:33.817Z,65.74
2022-12-25T16:19:36.485Z,65.66
2022-12-25T16:21:42.270Z,65.84
2022-12-25T16:23:45.308Z,65.96
2022-12-25T16:25:48.373Z,65.67
2022-12-25T16:27:51.136Z,65.93
2022-12-25T16:29:55.180Z,65.79
2022-12-25T16:31:57.875Z,65.77
2022-12-25T16:34:01.225Z,65.72
2022-12-25T16:36:04.121Z,65.69
2022-12-25T16:38:06.854Z,65.83
2022-12-25T16:40:11.027Z,65.70
2022-12-25T16:42:13.798Z,65.83
2022-12-25T16:44:16.520Z,65.61
2022-12-25T16:46:22.495Z,65.79
2022-12-25T16:48:25.312Z,65.73
2022-12-25T16:50:28.069Z,65.59
2022-12-25T16:52:31.471Z,65.71
2022-12-25T16:54:34.210Z,65.53
2022-12-25T16:56:37.163Z,65.58
2022-12-25T16:58:39.880Z,65.75
2022-12-25T17:00:48.875Z,65.57
2022-12-25T17:02:54.128Z,65.63
2022-12-25T17:04:56.992Z,65.51
2022-12-25T17:07:00.002Z,65.64
2022-12-25T17:09:03.571Z,65.50
2022-12-25T17:11:06.582Z,65.74
2022-12-25T17:13:09.437Z,65.63
2022-12-25T17:15:13.482Z,65.52
2022-12-25T17:17:16.092Z,65.56
2022-12-25T17:19:22.440Z,65.35
2022-12-25T17:21:26.325Z,65.49
2022-12-25T17:23:29.036Z,65.59
2022-12-25T17:25:34.661Z,65.59
2022-12-25T17:27:37.526Z,65.47
2022-12-25T17:29:40.940Z,65.67
2022-12-25T17:31:43.777Z,65.46
2022-12-25T17:33:46.510Z,65.36
2022-12-25T17:35:50.473Z,65.25
2022-12-25T17:37:53.313Z,65.47
2022-12-25T17:39:56.089Z,65.37
2022-12-25T17:41:58.900Z,65.54
2022-12-25T17:44:01.895Z,65.47
2022-12-25T17:46:06.161Z,65.36
2022-12-25T17:48:08.858Z,65.28
2022-12-25T17:50:11.703Z,65.38
2022-12-25T17:52:15.853Z,65.32
2022-12-25T17:54:18.547Z,65.34
2022-12-25T17:56:22.790Z,65.21
2022-12-25T17:58:25.710Z,65.29
2022-12-25T18:00:28.424Z,65.22
2022-12-25T18:02:31.549Z,65.18
2022-12-25T18:04:34.509Z,65.32
2022-12-25T18:06:37.601Z,65.08
2022-12-25T18:08:42.556Z,65.13
2022-12-25T18:10:45.416Z,65.27
2022-12-25T18:12:48.083Z,65.24
2022-12-25T18:14:50.962Z,65.29
2022-12-25T18:16:53.746Z,65.21
2022-12-25T18:18:56.447Z,65.07
2022-12-25T18:20:59.739Z,65.38
2022-12-25T18:23:03.166Z,65.31
2022-12-25T18:25:08.082Z,65.10
2022-12-25T18:27:10.881Z,65.33
2022-12-25T18:29:13.605Z,65.24
2022-12-25T18:31:18.775Z,65.14
2022-12-25T18:33:21.599Z,65.09
2022-12-25T18:35:28.925Z,65.27
2022-12-25T18:37:35.980Z,64.87
2022-12-25T18:39:42.614Z,64.92
2022-12-25T18:42:04.334Z,64.99
2022-12-25T18:44:07.010Z,65.12
2022-12-25T18:46:10.158Z,65.07
2022-12-25T18:48:13.225Z,65.15
2022-12-25T18:50:16.220Z,65.07
2022-12-25T18:52:48.782Z,64.89
2022-12-25T18:54:41.880Z,64.85
2022-12-25T18:56:49.488Z,64.75
2022-12-25T18:58:55.709Z,65.02
2022-12-25T19:00:58.607Z,65.00
2022-12-25T19:03:01.471Z,65.00
2022-12-25T19:05:05.639Z,65.01
2022-12-25T19:07:08.359Z,65.07
2022-12-25T19:09:11.104Z,64.80
2022-12-25T19:11:14.274Z,64.83
2022-12-25T19:13:20.353Z,65.07
2022-12-25T19:15:23.023Z,64.75
2022-12-25T19:17:31.539Z,64.72
2022-12-25T19:19:35.228Z,64.83
2022-12-25T19:21:38.099Z,64.86
2022-12-25T19:23:41.612Z,64.65
2022-12-25T19:25:44.313Z,64.89
2022-12-25T19:27:46.947Z,64.83
2022-12-25T19:29:51.127Z,64.79
2022-12-25T19:31:53.923Z,64.80
2022-12-25T19:33:56.936Z,64.68
2022-12-25T19:36:01.371Z,64.60
2022-12-25T19:38:04.045Z,64.90
2022-12-25T19:40:07.796Z,64.80
2022-12-25T19:42:10.627Z,64.54
2022-12-25T19:44:13.580Z,64.50
2022-12-25T19:46:19.680Z,64.37
2022-12-25T19:48:22.516Z,64.61
2022-12-25T19:50:28.490Z,64.62
2022-12-25T19:52:31.154Z,64.37
2022-12-25T19:54:33.904Z,64.39
2022-12-25T19:56:36.628Z,64.41
2022-12-25T19:58:39.997Z,64.58
2022-12-25T20:00:42.844Z,64.38
2022-12-25T20:02:47.162Z,64.44
2022-12-25T20:04:50.047Z,64.58
2022-12-25T20:06:52.755Z,64.41
2022-12-25T20:08:57.958Z,64.43
2022-12-25T20:11:00.698Z,64.28
2022-12-25T20:13:03.417Z,64.26
2022-12-25T20:15:07.321Z,64.13
2022-12-25T20:17:15.563Z,64.34
2022-12-25T20:19:20.160Z,64.26
2022-12-25T20:21:24.236Z,64.15
2022-12-25T20:23:26.991Z,64.52
2022-12-25T20:25:29.709Z,64.20
2022-12-25T20:27:32.534Z,64.40
2022-12-25T20:29:35.588Z,64.22
2022-12-25T20:31:38.778Z,64.42
2022-12-25T20:33:41.486Z,64.47
2022-12-25T20:35:47.543Z,64.45
2022-12-25T20:37:50.598Z,64.40
2022-12-25T20:39:53.287Z,64.36
2022-12-25T20:41:56.006Z,64.14
2022-12-25T20:43:58.944Z,64.28
2022-12-25T20:46:02.957Z,64.36
2022-12-25T20:48:06.041Z,64.11
2022-12-25T20:50:09.577Z,64.39
2022-12-25T20:52:13.618Z,64.29
2022-12-25T20:54:16.296Z,64.21
2022-12-25T20:56:21.899Z,64.33
2022-12-25T20:58:24.564Z,64.08
2022-12-25T21:00:27.242Z,64.11
2022-12-25T21:02:35.804Z,64.42
2022-12-25T21:04:39.351Z,64.50
2022-12-25T21:06:42.025Z,64.07
2022-12-25T21:08:46.194Z,64.11
2022-12-25T21:10:52.259Z,64.09
2022-12-25T21:12:54.960Z,64.03
2022-12-25T21:14:57.829Z,64.12
2022-12-25T21:17:01.062Z,64.22
2022-12-25T21:19:03.955Z,63.95
2022-12-25T21:21:07.947Z,64.35
2022-12-25T21:23:10.630Z,64.06
2022-12-25T21:25:14.725Z,64.08
2022-12-25T21:27:17.557Z,64.28
2022-12-25T21:29:22.808Z,64.19
2022-12-25T21:31:26.031Z,63.93
2022-12-25T21:33:46.482Z,64.11
2022-12-25T21:35:49.241Z,63.98
2022-12-25T21:37:51.868Z,64.25
2022-12-25T21:39:54.711Z,63.90
2022-12-25T21:41:59.421Z,63.90
2022-12-25T21:44:02.432Z,63.98
2022-12-25T21:46:06.173Z,63.83
2022-12-25T21:48:08.834Z,63.80
2022-12-25T21:50:30.809Z,63.86
2022-12-25T21:52:36.557Z,64.12
2022-12-25T21:54:39.245Z,64.00
2022-12-25T21:56:45.304Z,63.78
2022-12-25T21:58:49.808Z,63.79
2022-12-25T22:00:52.633Z,63.79
2022-12-25T22:02:55.536Z,63.84
2022-12-25T22:04:58.473Z,63.76
2022-12-25T22:07:18.281Z,63.81
2022-12-25T22:09:21.103Z,63.99
2022-12-25T22:11:41.742Z,63.79
2022-12-25T22:14:02.192Z,63.78
2022-12-25T22:16:24.769Z,64.13
2022-12-25T22:18:45.152Z,64.01
2022-12-25T22:20:47.785Z,63.89
2022-12-25T22:22:50.760Z,63.88
2022-12-25T22:24:55.306Z,63.92
2022-12-25T22:26:58.117Z,63.87
2022-12-25T22:29:00.958Z,63.96
